sensor_id;sensor_type;location;lat;lon;timestamp;pressure;altitude;pressure_sealevel;temperature;humidity
41202;BME280;26936;50.524;8.684;2023-07-31T00:02:22;99092.09;;;18.34;77.44
41202;BME280;26936;50.524;8.684;2023-07-31T00:04:47;99096.75;;;18.32;77.81
41202;BME280;26936;50.524;8.684;2023-07-31T00:07:14;99093.91;;;18.37;78.10
41202;BME280;26936;50.524;8.684;2023-07-31T00:09:39;99086.91;;;18.33;77.84
41202;BME280;26936;50.524;8.684;2023-07-31T00:12:04;99097.78;;;18.29;79.03
41202;BME280;26936;50.524;8.684;2023-07-31T00:14:30;99089.47;;;18.25;79.32
41202;BME280;26936;50.524;8.684;2023-07-31T00:16:55;99096.44;;;18.24;80.37
41202;BME280;26936;50.524;8.684;2023-07-31T00:19:20;99088.91;;;18.16;81.40
41202;BME280;26936;50.524;8.684;2023-07-31T00:21:45;99095.59;;;18.07;82.81
41202;BME280;26936;50.524;8.684;2023-07-31T00:24:11;99090.91;;;17.99;84.78
41202;BME280;26936;50.524;8.684;2023-07-31T00:26:36;99094.22;;;17.92;85.85
41202;BME280;26936;50.524;8.684;2023-07-31T00:29:01;99092.09;;;17.87;86.89
41202;BME280;26936;50.524;8.684;2023-07-31T00:31:27;99086.13;;;17.79;87.62
41202;BME280;26936;50.524;8.684;2023-07-31T00:33:52;99091.25;;;17.75;89.06
41202;BME280;26936;50.524;8.684;2023-07-31T00:36:17;99079.34;;;17.71;88.65
41202;BME280;26936;50.524;8.684;2023-07-31T00:38:43;99083.97;;;17.69;88.45
41202;BME280;26936;50.524;8.684;2023-07-31T00:41:09;99084.75;;;17.69;89.55
41202;BME280;26936;50.524;8.684;2023-07-31T00:43:34;99085.31;;;17.73;88.55
41202;BME280;26936;50.524;8.684;2023-07-31T00:45:59;99083.22;;;17.74;88.40
41202;BME280;26936;50.524;8.684;2023-07-31T00:48:25;99080.66;;;17.76;88.12
41202;BME280;26936;50.524;8.684;2023-07-31T00:50:50;99085.31;;;17.73;88.37
41202;BME280;26936;50.524;8.684;2023-07-31T00:53:16;99078.56;;;17.71;88.58
41202;BME280;26936;50.524;8.684;2023-07-31T00:55:42;99076.72;;;17.68;87.87
41202;BME280;26936;50.524;8.684;2023-07-31T00:58:07;99068.47;;;17.70;88.13
41202;BME280;26936;50.524;8.684;2023-07-31T01:00:33;99070.84;;;17.77;88.35
41202;BME280;26936;50.524;8.684;2023-07-31T01:02:58;99078.63;;;17.82;88.38
41202;BME280;26936;50.524;8.684;2023-07-31T01:05:46;99059.91;;;17.70;88.85
41202;BME280;26936;50.524;8.684;2023-07-31T01:08:43;99055.75;;;17.65;89.50
41202;BME280;26936;50.524;8.684;2023-07-31T01:11:19;99053.13;;;17.62;89.68
41202;BME280;26936;50.524;8.684;2023-07-31T01:13:46;99053.38;;;17.58;90.06
41202;BME280;26936;50.524;8.684;2023-07-31T01:16:12;99053.88;;;17.56;90.59
41202;BME280;26936;50.524;8.684;2023-07-31T01:18:37;99053.09;;;17.56;90.13
41202;BME280;26936;50.524;8.684;2023-07-31T01:21:23;99054.16;;;17.58;90.40
41202;BME280;26936;50.524;8.684;2023-07-31T01:26:47;99051.81;;;17.57;90.66
41202;BME280;26936;50.524;8.684;2023-07-31T01:32:02;99052.13;;;17.65;89.96
41202;BME280;26936;50.524;8.684;2023-07-31T01:34:29;99046.66;;;17.61;90.35
41202;BME280;26936;50.524;8.684;2023-07-31T01:36:56;99050.31;;;17.67;89.98
41202;BME280;26936;50.524;8.684;2023-07-31T01:39:23;99046.94;;;17.63;89.59
41202;BME280;26936;50.524;8.684;2023-07-31T01:41:48;99050.53;;;17.58;90.24
41202;BME280;26936;50.524;8.684;2023-07-31T01:44:13;99048.22;;;17.62;90.60
41202;BME280;26936;50.524;8.684;2023-07-31T01:46:39;99048.22;;;17.62;90.22
41202;BME280;26936;50.524;8.684;2023-07-31T01:49:05;99038.91;;;17.62;89.86
41202;BME280;26936;50.524;8.684;2023-07-31T01:51:31;99040.22;;;17.66;90.39
41202;BME280;26936;50.524;8.684;2023-07-31T01:54:02;99033.22;;;17.67;90.13
41202;BME280;26936;50.524;8.684;2023-07-31T01:56:27;99029.06;;;17.63;90.86
41202;BME280;26936;50.524;8.684;2023-07-31T01:58:53;99028.78;;;17.60;90.20
41202;BME280;26936;50.524;8.684;2023-07-31T02:01:18;99020.00;;;17.64;90.52
41202;BME280;26936;50.524;8.684;2023-07-31T02:03:43;99023.38;;;17.63;90.53
41202;BME280;26936;50.524;8.684;2023-07-31T02:06:08;99017.19;;;17.70;90.52
41202;BME280;26936;50.524;8.684;2023-07-31T02:08:34;99021.03;;;17.61;90.83
41202;BME280;26936;50.524;8.684;2023-07-31T02:10:59;99026.22;;;17.63;91.16
41202;BME280;26936;50.524;8.684;2023-07-31T02:13:24;99026.72;;;17.61;91.40
41202;BME280;26936;50.524;8.684;2023-07-31T02:15:50;99020.50;;;17.57;91.65
41202;BME280;26936;50.524;8.684;2023-07-31T02:18:15;99023.59;;;17.59;92.13
41202;BME280;26936;50.524;8.684;2023-07-31T02:20:41;99016.34;;;17.58;92.12
41202;BME280;26936;50.524;8.684;2023-07-31T02:23:06;99015.63;;;17.63;92.40
41202;BME280;26936;50.524;8.684;2023-07-31T02:25:31;99022.09;;;17.64;91.76
41202;BME280;26936;50.524;8.684;2023-07-31T02:27:57;99019.25;;;17.64;92.05
41202;BME280;26936;50.524;8.684;2023-07-31T02:30:22;99008.09;;;17.66;91.94
41202;BME280;26936;50.524;8.684;2023-07-31T02:32:47;99008.63;;;17.64;91.81
41202;BME280;26936;50.524;8.684;2023-07-31T02:35:12;99018.50;;;17.74;91.84
41202;BME280;26936;50.524;8.684;2023-07-31T02:37:41;99001.66;;;17.71;91.58
41202;BME280;26936;50.524;8.684;2023-07-31T02:40:07;99013.03;;;17.65;91.80
41202;BME280;26936;50.524;8.684;2023-07-31T02:42:32;99004.75;;;17.67;92.07
41202;BME280;26936;50.524;8.684;2023-07-31T02:44:58;98999.59;;;17.71;91.76
41202;BME280;26936;50.524;8.684;2023-07-31T02:47:23;99002.72;;;17.73;91.77
41202;BME280;26936;50.524;8.684;2023-07-31T02:49:48;99005.34;;;17.77;91.45
41202;BME280;26936;50.524;8.684;2023-07-31T02:52:13;99016.72;;;17.82;92.43
41202;BME280;26936;50.524;8.684;2023-07-31T02:54:39;99006.09;;;17.77;93.97
41202;BME280;26936;50.524;8.684;2023-07-31T02:57:04;99010.47;;;17.73;95.67
41202;BME280;26936;50.524;8.684;2023-07-31T02:59:30;99008.16;;;17.71;94.17
41202;BME280;26936;50.524;8.684;2023-07-31T03:01:55;99003.25;;;17.72;94.20
41202;BME280;26936;50.524;8.684;2023-07-31T03:04:20;99008.94;;;17.72;93.56
41202;BME280;26936;50.524;8.684;2023-07-31T03:06:45;99013.06;;;17.71;93.82
41202;BME280;26936;50.524;8.684;2023-07-31T03:09:11;98996.19;;;17.67;94.40
41202;BME280;26936;50.524;8.684;2023-07-31T03:11:36;99000.06;;;17.64;94.49
41202;BME280;26936;50.524;8.684;2023-07-31T03:14:01;99001.38;;;17.69;93.55
41202;BME280;26936;50.524;8.684;2023-07-31T03:16:26;99005.03;;;17.69;93.07
41202;BME280;26936;50.524;8.684;2023-07-31T03:18:52;99002.69;;;17.68;93.29
41202;BME280;26936;50.524;8.684;2023-07-31T03:21:17;99005.28;;;17.71;92.26
41202;BME280;26936;50.524;8.684;2023-07-31T03:23:42;99000.91;;;17.76;91.89
41202;BME280;26936;50.524;8.684;2023-07-31T03:26:08;99002.44;;;17.71;92.50
41202;BME280;26936;50.524;8.684;2023-07-31T03:28:34;99008.66;;;17.75;92.21
41202;BME280;26936;50.524;8.684;2023-07-31T03:30:59;98997.28;;;17.75;91.91
41202;BME280;26936;50.524;8.684;2023-07-31T03:33:25;99002.72;;;17.73;92.18
41202;BME280;26936;50.524;8.684;2023-07-31T03:35:51;99004.50;;;17.71;92.67
41202;BME280;26936;50.524;8.684;2023-07-31T03:38:16;98999.09;;;17.73;92.50
41202;BME280;26936;50.524;8.684;2023-07-31T03:40:41;99001.41;;;17.74;92.68
41202;BME280;26936;50.524;8.684;2023-07-31T03:43:07;99004.28;;;17.74;93.25
41202;BME280;26936;50.524;8.684;2023-07-31T03:45:32;99006.84;;;17.72;93.66
41202;BME280;26936;50.524;8.684;2023-07-31T03:47:57;99007.06;;;17.69;94.08
41202;BME280;26936;50.524;8.684;2023-07-31T03:50:23;99002.69;;;17.68;94.97
41202;BME280;26936;50.524;8.684;2023-07-31T03:52:50;98999.84;;;17.68;94.88
41202;BME280;26936;50.524;8.684;2023-07-31T03:55:15;99000.13;;;17.70;95.23
41202;BME280;26936;50.524;8.684;2023-07-31T03:57:40;98999.09;;;17.73;95.27
41202;BME280;26936;50.524;8.684;2023-07-31T04:00:06;99003.97;;;17.67;95.58
41202;BME280;26936;50.524;8.684;2023-07-31T04:02:31;98996.72;;;17.66;95.91
41202;BME280;26936;50.524;8.684;2023-07-31T04:04:57;98990.78;;;17.64;96.08
41202;BME280;26936;50.524;8.684;2023-07-31T04:07:22;98993.63;;;17.64;96.20
41202;BME280;26936;50.524;8.684;2023-07-31T04:09:47;98989.97;;;17.63;96.17
41202;BME280;26936;50.524;8.684;2023-07-31T04:12:12;98993.34;;;17.67;95.88
41202;BME280;26936;50.524;8.684;2023-07-31T04:14:38;98987.16;;;17.69;96.25
41202;BME280;26936;50.524;8.684;2023-07-31T04:17:03;98987.41;;;17.71;96.21
41202;BME280;26936;50.524;8.684;2023-07-31T04:19:28;98991.00;;;17.66;96.44
41202;BME280;26936;50.524;8.684;2023-07-31T04:21:53;98985.56;;;17.62;97.07
41202;BME280;26936;50.524;8.684;2023-07-31T04:24:19;98989.97;;;17.63;96.83
41202;BME280;26936;50.524;8.684;2023-07-31T04:26:52;98986.63;;;17.65;96.89
41202;BME280;26936;50.524;8.684;2023-07-31T04:29:18;98982.47;;;17.66;96.43
41202;BME280;26936;50.524;8.684;2023-07-31T04:31:43;98977.81;;;17.63;96.84
41202;BME280;26936;50.524;8.684;2023-07-31T04:34:08;98969.25;;;17.63;97.21
41202;BME280;26936;50.524;8.684;2023-07-31T04:36:34;98972.16;;;17.68;96.95
41202;BME280;26936;50.524;8.684;2023-07-31T04:39:03;98975.22;;;17.65;97.08
41202;BME280;26936;50.524;8.684;2023-07-31T04:41:28;98971.09;;;17.66;97.32
41202;BME280;26936;50.524;8.684;2023-07-31T04:43:53;98970.31;;;17.65;97.17
41202;BME280;26936;50.524;8.684;2023-07-31T04:46:18;98958.94;;;17.65;97.41
41202;BME280;26936;50.524;8.684;2023-07-31T04:48:44;98973.97;;;17.71;97.11
41202;BME280;26936;50.524;8.684;2023-07-31T04:51:09;98955.56;;;17.67;97.60
41202;BME280;26936;50.524;8.684;2023-07-31T04:53:35;98964.34;;;17.69;97.85
41202;BME280;26936;50.524;8.684;2023-07-31T04:56:01;98973.41;;;17.67;98.29
41202;BME280;26936;50.524;8.684;2023-07-31T04:58:26;98970.06;;;17.69;98.27
41202;BME280;26936;50.524;8.684;2023-07-31T05:00:51;98966.19;;;17.66;98.50
41202;BME280;26936;50.524;8.684;2023-07-31T05:03:17;98966.44;;;17.68;98.28
41202;BME280;26936;50.524;8.684;2023-07-31T05:05:42;98966.72;;;17.70;98.74
41202;BME280;26936;50.524;8.684;2023-07-31T05:08:07;98980.97;;;17.70;98.59
41202;BME280;26936;50.524;8.684;2023-07-31T05:10:33;98976.78;;;17.66;99.44
41202;BME280;26936;50.524;8.684;2023-07-31T05:12:58;98983.78;;;17.65;99.57
41202;BME280;26936;50.524;8.684;2023-07-31T05:15:23;98984.28;;;17.69;99.58
41202;BME280;26936;50.524;8.684;2023-07-31T05:17:48;98973.16;;;17.65;100.00
41202;BME280;26936;50.524;8.684;2023-07-31T05:20:14;98978.88;;;17.65;100.00
41202;BME280;26936;50.524;8.684;2023-07-31T05:22:40;98978.88;;;17.65;100.00
41202;BME280;26936;50.524;8.684;2023-07-31T05:25:05;98973.16;;;17.65;100.00
41202;BME280;26936;50.524;8.684;2023-07-31T05:27:31;98975.50;;;17.67;100.00
41202;BME280;26936;50.524;8.684;2023-07-31T05:29:56;98984.81;;;17.67;100.00
41202;BME280;26936;50.524;8.684;2023-07-31T05:32:21;98977.59;;;17.72;100.00
41202;BME280;26936;50.524;8.684;2023-07-31T05:34:47;98977.09;;;17.73;100.00
41202;BME280;26936;50.524;8.684;2023-07-31T05:37:13;98976.53;;;17.69;100.00
41202;BME280;26936;50.524;8.684;2023-07-31T05:39:39;98967.47;;;17.71;100.00
41202;BME280;26936;50.524;8.684;2023-07-31T05:42:05;98960.50;;;17.72;100.00
41202;BME280;26936;50.524;8.684;2023-07-31T05:44:30;98961.03;;;17.70;100.00
41202;BME280;26936;50.524;8.684;2023-07-31T05:46:55;98965.41;;;17.71;100.00
41202;BME280;26936;50.524;8.684;2023-07-31T05:49:20;98968.78;;;17.70;100.00
41202;BME280;26936;50.524;8.684;2023-07-31T05:51:46;98957.38;;;17.70;100.00
41202;BME280;26936;50.524;8.684;2023-07-31T05:54:11;98958.41;;;17.67;100.00
41202;BME280;26936;50.524;8.684;2023-07-31T05:56:36;98962.31;;;17.69;100.00
41202;BME280;26936;50.524;8.684;2023-07-31T05:59:01;98959.97;;;17.68;100.00
41202;BME280;26936;50.524;8.684;2023-07-31T06:01:28;98966.97;;;17.72;100.00
41202;BME280;26936;50.524;8.684;2023-07-31T06:03:53;98953.50;;;17.73;100.00
41202;BME280;26936;50.524;8.684;2023-07-31T06:06:18;98954.06;;;17.82;100.00
41202;BME280;26936;50.524;8.684;2023-07-31T06:08:43;98953.78;;;17.80;100.00
41202;BME280;26936;50.524;8.684;2023-07-31T06:11:09;98953.28;;;17.82;100.00
41202;BME280;26936;50.524;8.684;2023-07-31T06:13:34;98958.72;;;17.85;100.00
41202;BME280;26936;50.524;8.684;2023-07-31T06:16:00;98967.28;;;17.85;100.00
41202;BME280;26936;50.524;8.684;2023-07-31T06:18:25;98964.97;;;17.89;100.00
41202;BME280;26936;50.524;8.684;2023-07-31T06:20:50;98963.16;;;17.92;100.00
41202;BME280;26936;50.524;8.684;2023-07-31T06:23:19;98955.44;;;17.98;100.00
41202;BME280;26936;50.524;8.684;2023-07-31T06:25:44;98946.13;;;18.03;100.00
41202;BME280;26936;50.524;8.684;2023-07-31T06:28:09;98942.50;;;18.13;100.00
41202;BME280;26936;50.524;8.684;2023-07-31T06:30:35;98945.88;;;18.12;100.00
41202;BME280;26936;50.524;8.684;2023-07-31T06:33:00;98950.00;;;18.16;100.00
41202;BME280;26936;50.524;8.684;2023-07-31T06:35:25;98940.16;;;18.12;100.00
41202;BME280;26936;50.524;8.684;2023-07-31T06:37:51;98947.16;;;18.16;99.66
41202;BME280;26936;50.524;8.684;2023-07-31T06:40:16;98929.31;;;18.21;99.53
41202;BME280;26936;50.524;8.684;2023-07-31T06:42:42;98928.03;;;18.33;99.64
41202;BME280;26936;50.524;8.684;2023-07-31T06:45:07;98934.81;;;18.41;98.67
41202;BME280;26936;50.524;8.684;2023-07-31T06:47:33;98935.28;;;18.34;98.09
41202;BME280;26936;50.524;8.684;2023-07-31T06:49:58;98936.28;;;18.26;99.68
41202;BME280;26936;50.524;8.684;2023-07-31T06:52:23;98938.38;;;18.20;100.00
41202;BME280;26936;50.524;8.684;2023-07-31T06:55:03;98944.59;;;18.24;100.00
41202;BME280;26936;50.524;8.684;2023-07-31T06:57:29;98943.81;;;18.18;100.00
41202;BME280;26936;50.524;8.684;2023-07-31T06:59:54;98934.22;;;18.26;100.00
41202;BME280;26936;50.524;8.684;2023-07-31T07:02:20;98932.69;;;18.36;99.34
41202;BME280;26936;50.524;8.684;2023-07-31T07:04:45;98942.34;;;18.50;98.05
41202;BME280;26936;50.524;8.684;2023-07-31T07:07:11;98935.31;;;18.45;96.26
41202;BME280;26936;50.524;8.684;2023-07-31T07:09:36;98935.59;;;18.53;95.46
41202;BME280;26936;50.524;8.684;2023-07-31T07:12:02;98930.94;;;18.50;95.92
41202;BME280;26936;50.524;8.684;2023-07-31T07:14:27;98940.25;;;18.56;95.87
41202;BME280;26936;50.524;8.684;2023-07-31T07:16:52;98925.47;;;18.57;95.75
41202;BME280;26936;50.524;8.684;2023-07-31T07:19:17;98927.28;;;18.60;95.65
41202;BME280;26936;50.524;8.684;2023-07-31T07:21:43;98920.31;;;18.61;94.81
41202;BME280;26936;50.524;8.684;2023-07-31T07:24:08;98923.16;;;18.56;94.10
41202;BME280;26936;50.524;8.684;2023-07-31T07:26:33;98913.03;;;18.66;94.44
41202;BME280;26936;50.524;8.684;2023-07-31T07:28:59;98907.06;;;18.64;94.63
41202;BME280;26936;50.524;8.684;2023-07-31T07:31:27;98917.44;;;18.67;94.49
41202;BME280;26936;50.524;8.684;2023-07-31T07:33:52;98917.69;;;18.69;93.83
41202;BME280;26936;50.524;8.684;2023-07-31T07:36:17;98917.47;;;18.61;93.73
41202;BME280;26936;50.524;8.684;2023-07-31T07:38:44;98915.09;;;18.76;94.50
41202;BME280;26936;50.524;8.684;2023-07-31T07:41:09;98910.72;;;18.64;92.96
41202;BME280;26936;50.524;8.684;2023-07-31T07:43:35;98909.41;;;18.65;93.53
41202;BME280;26936;50.524;8.684;2023-07-31T07:46:00;98908.34;;;18.68;93.93
41202;BME280;26936;50.524;8.684;2023-07-31T07:48:25;98908.09;;;18.77;92.91
41202;BME280;26936;50.524;8.684;2023-07-31T07:50:51;98913.53;;;18.70;94.35
41202;BME280;26936;50.524;8.684;2023-07-31T07:53:16;98924.19;;;18.75;93.56
41202;BME280;26936;50.524;8.684;2023-07-31T07:55:41;98923.41;;;18.63;94.49
41202;BME280;26936;50.524;8.684;2023-07-31T07:58:08;98919.50;;;18.66;94.25
41202;BME280;26936;50.524;8.684;2023-07-31T08:00:33;98922.09;;;18.75;94.80
41202;BME280;26936;50.524;8.684;2023-07-31T08:02:58;98906.81;;;18.78;93.43
41202;BME280;26936;50.524;8.684;2023-07-31T08:05:24;98904.22;;;18.80;92.47
41202;BME280;26936;50.524;8.684;2023-07-31T08:07:49;98910.16;;;18.88;91.10
41202;BME280;26936;50.524;8.684;2023-07-31T08:10:14;98912.75;;;18.97;90.46
41202;BME280;26936;50.524;8.684;2023-07-31T08:12:40;98902.63;;;19.02;90.18
41202;BME280;26936;50.524;8.684;2023-07-31T08:15:06;98897.94;;;19.10;88.92
41202;BME280;26936;50.524;8.684;2023-07-31T08:17:31;98896.56;;;19.27;88.48
41202;BME280;26936;50.524;8.684;2023-07-31T08:19:56;98892.63;;;19.52;86.82
41202;BME280;26936;50.524;8.684;2023-07-31T08:22:23;98898.91;;;19.40;86.11
41202;BME280;26936;50.524;8.684;2023-07-31T08:24:48;98895.22;;;19.50;86.59
41202;BME280;26936;50.524;8.684;2023-07-31T08:27:13;98892.13;;;19.48;86.58
41202;BME280;26936;50.524;8.684;2023-07-31T08:29:39;98892.22;;;19.83;85.98
41202;BME280;26936;50.524;8.684;2023-07-31T08:32:04;98886.63;;;20.02;84.73
41202;BME280;26936;50.524;8.684;2023-07-31T08:34:30;98882.81;;;20.35;83.10
41202;BME280;26936;50.524;8.684;2023-07-31T08:36:55;98880.91;;;20.43;82.63
41202;BME280;26936;50.524;8.684;2023-07-31T08:39:20;98887.16;;;20.76;80.51
41202;BME280;26936;50.524;8.684;2023-07-31T08:41:47;98885.09;;;20.42;80.31
41202;BME280;26936;50.524;8.684;2023-07-31T08:44:14;98876.91;;;20.21;81.07
41202;BME280;26936;50.524;8.684;2023-07-31T08:46:40;98886.78;;;20.26;81.31
41202;BME280;26936;50.524;8.684;2023-07-31T08:49:07;98868.72;;;20.01;82.80
41202;BME280;26936;50.524;8.684;2023-07-31T08:51:34;98869.16;;;20.16;82.96
41202;BME280;26936;50.524;8.684;2023-07-31T08:54:00;98866.59;;;20.13;82.74
41202;BME280;26936;50.524;8.684;2023-07-31T08:56:26;98865.09;;;20.01;81.79
41202;BME280;26936;50.524;8.684;2023-07-31T08:58:53;98859.75;;;19.81;83.96
41202;BME280;26936;50.524;8.684;2023-07-31T09:01:20;98862.94;;;19.66;84.04
41202;BME280;26936;50.524;8.684;2023-07-31T09:03:46;98865.25;;;19.73;84.56
41202;BME280;26936;50.524;8.684;2023-07-31T09:06:13;98868.72;;;19.55;84.74
41202;BME280;26936;50.524;8.684;2023-07-31T09:08:41;98865.09;;;19.55;84.79
41202;BME280;26936;50.524;8.684;2023-07-31T09:11:07;98867.66;;;19.58;85.21
41202;BME280;26936;50.524;8.684;2023-07-31T09:13:33;98871.31;;;19.53;85.82
41202;BME280;26936;50.524;8.684;2023-07-31T09:15:58;98866.41;;;19.54;85.33
41202;BME280;26936;50.524;8.684;2023-07-31T09:18:24;98864.84;;;19.53;85.85
41202;BME280;26936;50.524;8.684;2023-07-31T09:21:05;98863.28;;;19.52;86.58
41202;BME280;26936;50.524;8.684;2023-07-31T09:23:46;98864.41;;;19.38;87.52
41202;BME280;26936;50.524;8.684;2023-07-31T09:26:35;98866.22;;;19.19;91.51
41202;BME280;26936;50.524;8.684;2023-07-31T09:29:04;98878.25;;;19.01;95.16
41202;BME280;26936;50.524;8.684;2023-07-31T09:31:42;98874.09;;;18.96;96.78
41202;BME280;26936;50.524;8.684;2023-07-31T09:34:08;98893.31;;;18.73;100.00
41202;BME280;26936;50.524;8.684;2023-07-31T09:36:48;98890.50;;;18.51;100.00
41202;BME280;26936;50.524;8.684;2023-07-31T09:39:15;98891.53;;;18.43;100.00
41202;BME280;26936;50.524;8.684;2023-07-31T09:41:43;98894.38;;;18.43;100.00
41202;BME280;26936;50.524;8.684;2023-07-31T09:44:09;98900.28;;;18.34;100.00
41202;BME280;26936;50.524;8.684;2023-07-31T09:46:36;98892.25;;;18.32;100.00
41202;BME280;26936;50.524;8.684;2023-07-31T09:49:09;98916.09;;;18.18;100.00
41202;BME280;26936;50.524;8.684;2023-07-31T09:51:35;98904.44;;;18.11;100.00
41202;BME280;26936;50.524;8.684;2023-07-31T09:54:13;98895.06;;;18.05;100.00
41202;BME280;26936;50.524;8.684;2023-07-31T09:56:48;98894.84;;;18.14;100.00
41202;BME280;26936;50.524;8.684;2023-07-31T09:59:22;98892.25;;;18.10;100.00
41202;BME280;26936;50.524;8.684;2023-07-31T10:01:49;98887.63;;;18.40;100.00
41202;BME280;26936;50.524;8.684;2023-07-31T10:04:15;98877.78;;;18.58;100.00
41202;BME280;26936;50.524;8.684;2023-07-31T10:06:45;98888.66;;;18.59;100.00
41202;BME280;26936;50.524;8.684;2023-07-31T10:09:12;98872.59;;;18.56;100.00
41202;BME280;26936;50.524;8.684;2023-07-31T10:11:43;98866.13;;;18.45;100.00
41202;BME280;26936;50.524;8.684;2023-07-31T10:14:11;98865.59;;;18.41;100.00
41202;BME280;26936;50.524;8.684;2023-07-31T10:16:38;98850.03;;;18.64;100.00
41202;BME280;26936;50.524;8.684;2023-07-31T10:19:05;98854.94;;;18.63;100.00
41202;BME280;26936;50.524;8.684;2023-07-31T10:21:31;98846.06;;;18.94;100.00
41202;BME280;26936;50.524;8.684;2023-07-31T10:24:02;98845.31;;;18.94;100.00
41202;BME280;26936;50.524;8.684;2023-07-31T10:26:29;98845.53;;;19.02;100.00
41202;BME280;26936;50.524;8.684;2023-07-31T10:28:55;98844.78;;;18.96;100.00
41202;BME280;26936;50.524;8.684;2023-07-31T10:31:22;98836.97;;;19.02;100.00
41202;BME280;26936;50.524;8.684;2023-07-31T10:33:48;98833.28;;;19.18;100.00
41202;BME280;26936;50.524;8.684;2023-07-31T10:36:17;98834.34;;;19.09;100.00
41202;BME280;26936;50.524;8.684;2023-07-31T10:38:43;98830.91;;;19.27;100.00
41202;BME280;26936;50.524;8.684;2023-07-31T10:41:12;98833.72;;;19.49;100.00
41202;BME280;26936;50.524;8.684;2023-07-31T10:43:38;98838.31;;;19.63;100.00
41202;BME280;26936;50.524;8.684;2023-07-31T10:46:22;98831.03;;;19.62;100.00
41202;BME280;26936;50.524;8.684;2023-07-31T10:48:57;98825.78;;;19.72;100.00
41202;BME280;26936;50.524;8.684;2023-07-31T10:51:32;98832.94;;;19.89;100.00
41202;BME280;26936;50.524;8.684;2023-07-31T10:54:12;98828.28;;;20.27;100.00
41202;BME280;26936;50.524;8.684;2023-07-31T10:56:38;98813.47;;;20.23;99.43
41202;BME280;26936;50.524;8.684;2023-07-31T10:59:05;98822.88;;;20.48;100.00
41202;BME280;26936;50.524;8.684;2023-07-31T11:01:51;98823.56;;;20.30;97.68
41202;BME280;26936;50.524;8.684;2023-07-31T11:04:22;98822.00;;;20.34;98.80
41202;BME280;26936;50.524;8.684;2023-07-31T11:07:01;98811.84;;;20.33;96.75
41202;BME280;26936;50.524;8.684;2023-07-31T11:09:32;98802.03;;;20.23;96.46
41202;BME280;26936;50.524;8.684;2023-07-31T11:12:01;98802.34;;;20.19;98.07
41202;BME280;26936;50.524;8.684;2023-07-31T11:14:26;98806.25;;;20.16;98.14
41202;BME280;26936;50.524;8.684;2023-07-31T11:16:52;98799.44;;;20.25;98.78
41202;BME280;26936;50.524;8.684;2023-07-31T11:19:24;98801.63;;;20.67;97.24
41202;BME280;26936;50.524;8.684;2023-07-31T11:21:51;98793.50;;;20.77;94.38
41202;BME280;26936;50.524;8.684;2023-07-31T11:24:17;98786.16;;;21.05;92.82
41202;BME280;26936;50.524;8.684;2023-07-31T11:26:52;98802.19;;;21.14;93.38
41202;BME280;26936;50.524;8.684;2023-07-31T11:29:18;98789.91;;;21.37;91.06
41202;BME280;26936;50.524;8.684;2023-07-31T11:31:44;98781.63;;;21.90;88.39
41202;BME280;26936;50.524;8.684;2023-07-31T11:34:10;98775.22;;;21.84;85.26
41202;BME280;26936;50.524;8.684;2023-07-31T11:36:35;98783.63;;;21.39;80.64
41202;BME280;26936;50.524;8.684;2023-07-31T11:39:05;98782.47;;;21.47;81.85
41202;BME280;26936;50.524;8.684;2023-07-31T11:41:30;98782.25;;;21.27;80.85
41202;BME280;26936;50.524;8.684;2023-07-31T11:43:59;98777.28;;;20.85;84.41
41202;BME280;26936;50.524;8.684;2023-07-31T11:46:25;98766.03;;;20.87;83.87
41202;BME280;26936;50.524;8.684;2023-07-31T11:48:50;98774.47;;;20.79;84.11
41202;BME280;26936;50.524;8.684;2023-07-31T11:51:16;98766.28;;;20.89;84.25
41202;BME280;26936;50.524;8.684;2023-07-31T11:53:51;98751.66;;;20.92;83.98
41202;BME280;26936;50.524;8.684;2023-07-31T11:56:18;98752.75;;;20.89;84.19
41202;BME280;26936;50.524;8.684;2023-07-31T11:58:45;98762.56;;;20.99;84.67
41202;BME280;26936;50.524;8.684;2023-07-31T12:01:11;98749.97;;;20.60;81.83
41202;BME280;26936;50.524;8.684;2023-07-31T12:03:38;98754.81;;;20.70;82.61
41202;BME280;26936;50.524;8.684;2023-07-31T12:06:03;98756.44;;;20.84;83.83
41202;BME280;26936;50.524;8.684;2023-07-31T12:08:29;98755.66;;;20.84;82.42
41202;BME280;26936;50.524;8.684;2023-07-31T12:10:54;98754.97;;;20.78;83.05
41202;BME280;26936;50.524;8.684;2023-07-31T12:13:26;98746.66;;;20.98;83.77
41202;BME280;26936;50.524;8.684;2023-07-31T12:15:57;98751.50;;;20.85;82.50
41202;BME280;26936;50.524;8.684;2023-07-31T12:18:23;98751.63;;;20.74;82.18
41202;BME280;26936;50.524;8.684;2023-07-31T12:20:54;98746.75;;;20.69;82.50
41202;BME280;26936;50.524;8.684;2023-07-31T12:23:23;98745.03;;;20.60;81.87
41202;BME280;26936;50.524;8.684;2023-07-31T12:26:14;98745.19;;;20.68;83.52
41202;BME280;26936;50.524;8.684;2023-07-31T12:28:42;98738.28;;;20.82;82.71
41202;BME280;26936;50.524;8.684;2023-07-31T12:31:10;98734.03;;;20.88;80.88
41202;BME280;26936;50.524;8.684;2023-07-31T12:33:38;98720.31;;;21.24;79.66
41202;BME280;26936;50.524;8.684;2023-07-31T12:36:07;98726.81;;;21.24;79.49
41202;BME280;26936;50.524;8.684;2023-07-31T12:38:33;98723.28;;;21.37;78.67
41202;BME280;26936;50.524;8.684;2023-07-31T12:40:58;98714.63;;;21.55;77.60
41202;BME280;26936;50.524;8.684;2023-07-31T12:43:24;98712.03;;;21.76;76.53
41202;BME280;26936;50.524;8.684;2023-07-31T12:45:49;98709.75;;;21.88;75.95
41202;BME280;26936;50.524;8.684;2023-07-31T12:48:14;98701.38;;;22.03;73.43
41202;BME280;26936;50.524;8.684;2023-07-31T12:50:40;98701.31;;;22.08;72.00
41202;BME280;26936;50.524;8.684;2023-07-31T12:53:05;98691.25;;;22.02;73.16
41202;BME280;26936;50.524;8.684;2023-07-31T12:55:32;98702.16;;;22.03;74.46
41202;BME280;26936;50.524;8.684;2023-07-31T12:57:59;98682.25;;;21.79;73.64
41202;BME280;26936;50.524;8.684;2023-07-31T13:00:25;98691.66;;;21.80;75.55
41202;BME280;26936;50.524;8.684;2023-07-31T13:02:51;98685.41;;;21.76;74.68